createdAt,value
2019-02-07T00:09:45.648Z,26.57
2019-02-07T00:12:13.828Z,26.27
2019-02-07T00:15:01.065Z,28.83
2019-02-07T00:18:18.049Z,30.27
2019-02-07T00:21:17.583Z,26.93
2019-02-07T00:23:45.508Z,26.13
2019-02-07T00:26:13.834Z,26.83
2019-02-07T00:29:22.043Z,29.63
2019-02-07T00:32:21.188Z,27.73
2019-02-07T00:34:49.691Z,25.93
2019-02-07T00:37:17.294Z,25.50
2019-02-07T00:39:45.916Z,26.80
2019-02-07T00:45:56.252Z,26.17
2019-02-07T00:48:24.242Z,26.90
2019-02-07T00:50:52.507Z,27.13
2019-02-07T00:53:21.135Z,24.37
2019-02-07T00:55:49.384Z,22.33
2019-02-07T00:58:17.635Z,21.93
2019-02-07T01:00:45.945Z,23.83
2019-02-07T01:03:54.535Z,24.00
2019-02-07T01:12:56.438Z,20.80
2019-02-07T01:18:44.833Z,22.10
2019-02-07T01:21:13.336Z,22.57
2019-02-07T01:26:42.659Z,20.70
2019-02-07T01:29:11.177Z,20.87
2019-02-07T01:31:38.653Z,21.37
2019-02-07T01:34:46.894Z,20.87
2019-02-07T01:37:14.727Z,20.33
2019-02-07T01:39:43.368Z,20.43
2019-02-07T01:42:11.594Z,20.50
2019-02-07T01:44:40.167Z,20.93
2019-02-07T01:47:20.402Z,22.07
2019-02-07T01:49:48.978Z,21.60
2019-02-07T01:52:16.428Z,20.07
2019-02-07T01:55:15.826Z,19.80
2019-02-07T02:00:42.803Z,21.50
2019-02-07T02:04:03.178Z,20.03
2019-02-07T02:06:30.961Z,19.43
2019-02-07T02:08:59.223Z,17.43
2019-02-07T02:11:27.871Z,18.03
2019-02-07T02:17:04.665Z,17.63
2019-02-07T02:19:33.001Z,18.13
2019-02-07T02:31:24.286Z,19.40
2019-02-07T02:33:52.508Z,17.33
2019-02-07T02:36:20.745Z,16.80
2019-02-07T02:38:48.838Z,17.33
2019-02-07T02:41:16.305Z,19.37
2019-02-07T02:43:44.513Z,17.47
2019-02-07T02:46:12.854Z,17.50
2019-02-07T02:54:55.224Z,25.23
2019-02-07T02:57:23.142Z,19.07
2019-02-07T03:00:31.343Z,15.53
2019-02-07T03:03:11.093Z,18.20
2019-02-07T03:05:58.783Z,17.20
2019-02-07T03:09:07.408Z,15.77
2019-02-07T03:15:07.792Z,17.57
2019-02-07T03:17:55.609Z,17.90
2019-02-07T03:20:54.989Z,18.20
2019-02-07T03:24:03.371Z,17.77
2019-02-07T03:30:11.794Z,18.53
2019-02-07T03:32:59.673Z,17.00
2019-02-07T03:35:39.193Z,16.70
2019-02-07T03:38:26.664Z,17.63
2019-02-07T03:41:17.888Z,19.90
2019-02-07T03:44:26.142Z,18.10
2019-02-07T03:47:14.023Z,18.73
2019-02-07T03:50:20.146Z,18.40
2019-02-07T03:53:28.512Z,18.70
2019-02-07T03:56:16.219Z,16.57
2019-02-07T03:58:53.474Z,18.97
2019-02-07T04:07:22.802Z,20.13
2019-02-07T04:10:22.422Z,19.33
2019-02-07T04:13:10.163Z,19.82
2019-02-07T04:15:50.516Z,23.38
2019-02-07T04:18:29.321Z,18.33
2019-02-07T04:21:25.364Z,19.97
2019-02-07T04:27:34.191Z,19.10
2019-02-07T04:30:33.873Z,19.27
2019-02-07T04:33:20.971Z,21.10
2019-02-07T04:36:09.105Z,19.57
2019-02-07T04:38:56.426Z,21.50
2019-02-07T04:41:36.726Z,20.20
2019-02-07T04:47:17.430Z,21.30
2019-02-07T04:50:24.118Z,19.13
2019-02-07T04:53:32.651Z,19.30
2019-02-07T04:56:20.432Z,18.77
2019-02-07T05:02:16.745Z,18.20
2019-02-07T05:08:24.728Z,19.60
2019-02-07T05:11:23.997Z,18.57
2019-02-07T05:14:10.844Z,20.30
2019-02-07T05:17:19.105Z,18.70
2019-02-07T05:20:26.178Z,17.00
2019-02-07T05:23:35.221Z,20.97
2019-02-07T05:29:24.469Z,19.37
2019-02-07T05:35:20.996Z,19.90
2019-02-07T05:41:36.564Z,25.33
2019-02-07T05:44:45.156Z,21.07
2019-02-07T05:50:53.364Z,20.63
2019-02-07T05:53:40.759Z,19.80
2019-02-07T05:59:49.240Z,20.37
2019-02-07T06:02:36.900Z,21.77
2019-02-07T06:08:26.271Z,21.43
2019-02-07T06:11:28.895Z,19.43
2019-02-07T06:14:16.688Z,19.40
2019-02-07T06:17:03.794Z,18.17
2019-02-07T06:19:51.159Z,19.87
2019-02-07T06:22:30.822Z,19.03
2019-02-07T06:25:18.381Z,19.70
2019-02-07T06:27:53.422Z,20.13
2019-02-07T06:30:30.128Z,20.00
2019-02-07T06:33:29.261Z,19.50
2019-02-07T06:36:09.434Z,21.13
2019-02-07T06:38:56.726Z,20.80
2019-02-07T06:42:05.301Z,19.63
2019-02-07T06:45:06.171Z,19.87
2019-02-07T06:48:00.725Z,22.03
2019-02-07T06:51:07.462Z,20.33
2019-02-07T06:54:16.029Z,19.53
2019-02-07T06:57:17.021Z,19.85
2019-02-07T07:00:24.046Z,20.57
2019-02-07T07:03:32.960Z,21.33
2019-02-07T07:06:20.704Z,20.50
2019-02-07T07:09:20.390Z,19.80
2019-02-07T07:12:26.566Z,18.87
2019-02-07T07:15:14.331Z,16.97
2019-02-07T07:18:03.135Z,19.00
2019-02-07T07:21:09.890Z,20.87
2019-02-07T07:23:57.640Z,18.13
2019-02-07T07:26:45.015Z,20.13
2019-02-07T07:30:04.819Z,17.00
2019-02-07T07:32:52.445Z,18.93
2019-02-07T07:35:40.211Z,18.83
2019-02-07T07:44:22.818Z,21.70
2019-02-07T07:47:10.588Z,20.63
2019-02-07T07:50:17.376Z,19.90
2019-02-07T07:53:04.701Z,16.50
2019-02-07T07:55:52.621Z,17.50
2019-02-07T08:01:42.539Z,16.77
2019-02-07T08:04:30.344Z,17.87
2019-02-07T08:07:38.924Z,16.33
2019-02-07T08:10:45.414Z,15.57
2019-02-07T08:13:32.682Z,16.53
2019-02-07T08:16:20.406Z,18.95
2019-02-07T08:19:07.476Z,16.93
2019-02-07T08:21:55.261Z,18.93
2019-02-07T08:24:30.606Z,19.20
2019-02-07T08:27:17.982Z,18.23
2019-02-07T08:30:18.036Z,17.90
2019-02-07T08:33:26.560Z,16.63
2019-02-07T08:36:13.696Z,16.00
2019-02-07T08:39:01.335Z,18.63
2019-02-07T08:41:49.176Z,17.13
2019-02-07T08:44:28.209Z,16.47
2019-02-07T08:47:15.330Z,16.70
2019-02-07T08:50:14.521Z,17.03
2019-02-07T08:53:02.351Z,17.63
2019-02-07T08:55:49.688Z,16.43
2019-02-07T08:58:37.556Z,16.67
2019-02-07T09:01:43.957Z,16.93
2019-02-07T09:04:51.916Z,16.50
2019-02-07T09:07:39.642Z,16.53
2019-02-07T09:10:45.399Z,16.97
2019-02-07T09:13:54.032Z,18.43
2019-02-07T09:16:41.313Z,16.13
2019-02-07T09:19:28.738Z,16.87
2019-02-07T09:22:16.248Z,14.73
2019-02-07T09:28:05.722Z,16.20
2019-02-07T09:31:12.466Z,15.00
2019-02-07T09:33:59.937Z,15.97
2019-02-07T09:40:08.482Z,16.70
2019-02-07T09:43:17.088Z,15.43
2019-02-07T09:46:04.547Z,13.90
2019-02-07T09:52:14.779Z,15.70
2019-02-07T09:55:02.082Z,15.83
2019-02-07T09:57:49.122Z,15.40
2019-02-07T10:00:55.591Z,15.97
2019-02-07T10:03:43.287Z,14.70
2019-02-07T10:06:30.254Z,14.03
2019-02-07T10:12:27.122Z,15.63
2019-02-07T10:15:14.441Z,17.00
2019-02-07T10:18:01.669Z,17.27
2019-02-07T10:20:49.125Z,18.30
2019-02-07T10:23:36.885Z,16.43
2019-02-07T10:29:26.453Z,17.03
2019-02-07T10:32:32.993Z,18.20
2019-02-07T10:35:22.903Z,18.27
2019-02-07T10:38:16.701Z,15.47
2019-02-07T10:41:04.571Z,16.33
2019-02-07T10:43:51.882Z,19.00
2019-02-07T10:47:00.535Z,15.97
2019-02-07T10:49:59.739Z,19.03
2019-02-07T10:52:47.328Z,20.10
2019-02-07T10:55:34.822Z,20.40
2019-02-07T10:58:22.352Z,18.90
2019-02-07T11:04:11.028Z,19.67
2019-02-07T11:06:57.982Z,19.20
2019-02-07T11:09:57.591Z,16.90
2019-02-07T11:12:39.246Z,16.80
2019-02-07T11:15:28.650Z,17.07
2019-02-07T11:18:16.347Z,18.27
2019-02-07T11:21:22.487Z,22.93
2019-02-07T11:24:09.875Z,27.43
2019-02-07T11:27:05.769Z,20.43
2019-02-07T11:29:53.706Z,17.57
2019-02-07T11:32:41.110Z,21.47
2019-02-07T11:35:29.157Z,19.63
2019-02-07T11:38:16.858Z,17.87
2019-02-07T11:41:04.824Z,20.30
2019-02-07T11:47:05.532Z,19.53
2019-02-07T11:49:56.488Z,20.03
2019-02-07T11:52:43.855Z,19.33
2019-02-07T11:55:31.547Z,19.33
2019-02-07T11:58:10.187Z,16.53
2019-02-07T12:00:58.024Z,17.43
2019-02-07T12:04:04.883Z,17.20
2019-02-07T12:06:51.937Z,18.03
2019-02-07T12:09:58.656Z,16.17
2019-02-07T12:12:45.805Z,17.50
2019-02-07T12:15:33.648Z,16.90
2019-02-07T12:18:21.515Z,17.20
2019-02-07T12:21:28.267Z,16.03
2019-02-07T12:24:16.323Z,18.10
2019-02-07T12:27:04.136Z,17.13
2019-02-07T12:29:50.896Z,18.10
2019-02-07T12:32:38.375Z,16.57
2019-02-07T12:35:48.835Z,16.57
2019-02-07T12:41:37.745Z,17.90
2019-02-07T12:44:46.000Z,18.43
2019-02-07T12:47:33.746Z,20.77
2019-02-07T12:50:39.308Z,20.73
2019-02-07T12:53:27.166Z,19.30
2019-02-07T12:56:24.851Z,17.93
2019-02-07T12:59:12.318Z,18.40
2019-02-07T13:01:59.838Z,17.57
2019-02-07T13:05:08.073Z,21.33
2019-02-07T13:11:01.929Z,19.30
2019-02-07T13:13:49.310Z,18.10
2019-02-07T13:16:36.750Z,18.90
2019-02-07T13:19:40.553Z,18.40
2019-02-07T13:22:47.014Z,19.07
2019-02-07T13:25:27.098Z,17.33
2019-02-07T13:28:14.847Z,19.63
2019-02-07T13:31:02.007Z,18.37
2019-02-07T13:33:48.704Z,26.83
2019-02-07T13:36:36.630Z,33.00
2019-02-07T13:42:45.926Z,20.90
2019-02-07T13:45:54.199Z,31.37
2019-02-07T13:48:30.351Z,30.77
2019-02-07T13:51:38.991Z,29.60
2019-02-07T13:54:47.600Z,28.80
2019-02-07T13:57:35.312Z,21.47
2019-02-07T14:00:34.085Z,20.90
2019-02-07T14:03:21.891Z,19.90
2019-02-07T14:06:09.468Z,20.47
2019-02-07T14:08:56.851Z,19.20
2019-02-07T14:11:55.911Z,19.17
2019-02-07T14:14:43.409Z,19.70
2019-02-07T14:17:31.213Z,20.00
2019-02-07T14:20:38.068Z,18.03
2019-02-07T14:23:46.321Z,17.67
2019-02-07T14:29:53.918Z,17.37
2019-02-07T14:32:41.995Z,16.93
2019-02-07T14:38:42.234Z,17.40
2019-02-07T14:41:28.942Z,15.50
2019-02-07T14:44:16.358Z,16.43
2019-02-07T14:50:14.602Z,20.87
2019-02-07T14:52:34.726Z,19.67
2019-02-07T14:55:14.046Z,14.87
2019-02-07T15:01:02.614Z,17.97
2019-02-07T15:03:30.846Z,16.60
2019-02-07T15:09:39.548Z,16.70
2019-02-07T15:12:48.108Z,17.23
2019-02-07T15:21:37.947Z,18.57
2019-02-07T15:24:54.567Z,18.43
2019-02-07T15:30:21.152Z,20.30
2019-02-07T15:32:49.445Z,18.20
2019-02-07T15:38:31.340Z,18.17
2019-02-07T15:41:18.670Z,19.50
2019-02-07T15:44:27.286Z,19.13
2019-02-07T15:50:08.838Z,19.93
2019-02-07T15:52:37.132Z,18.93
2019-02-07T15:58:07.294Z,20.70
2019-02-07T16:01:15.976Z,21.23
2019-02-07T16:10:25.197Z,22.77
2019-02-07T16:12:53.407Z,21.97
2019-02-07T16:15:21.694Z,23.10
2019-02-07T16:17:49.984Z,22.30
2019-02-07T16:26:40.665Z,25.20
2019-02-07T16:29:49.278Z,28.67
2019-02-07T16:32:29.220Z,26.90
2019-02-07T16:34:57.926Z,24.10
2019-02-07T16:38:06.186Z,25.33
2019-02-07T16:43:45.642Z,26.33
2019-02-07T16:49:34.387Z,24.90
2019-02-07T16:52:02.638Z,24.80
2019-02-07T17:04:14.584Z,25.80
2019-02-07T17:06:43.081Z,24.87
2019-02-07T17:09:30.464Z,25.50
2019-02-07T17:12:00.950Z,26.37
2019-02-07T17:20:56.611Z,26.07
2019-02-07T17:24:05.255Z,31.03
2019-02-07T17:27:04.528Z,28.03
2019-02-07T17:29:53.469Z,29.90
2019-02-07T17:35:53.653Z,28.60
2019-02-07T17:41:42.074Z,25.13
2019-02-07T17:44:10.308Z,26.77
2019-02-07T17:46:46.918Z,25.70
2019-02-07T17:49:26.739Z,26.83
2019-02-07T17:52:35.397Z,24.53
2019-02-07T17:58:54.731Z,20.90
2019-02-07T18:01:23.084Z,22.03
2019-02-07T18:03:51.630Z,25.23
2019-02-07T18:09:40.723Z,19.90
2019-02-07T18:12:49.264Z,18.53
2019-02-07T18:18:19.212Z,23.43
2019-02-07T18:24:36.550Z,22.00
2019-02-07T18:27:04.773Z,25.93
2019-02-07T18:29:32.895Z,26.77
2019-02-07T18:32:01.125Z,25.47
2019-02-07T18:34:29.872Z,25.93
2019-02-07T18:36:58.198Z,25.77
2019-02-07T18:44:48.871Z,22.50
2019-02-07T18:49:58.823Z,20.93
2019-02-07T18:52:26.393Z,24.13
2019-02-07T18:54:54.329Z,24.17
2019-02-07T19:00:34.836Z,24.57
2019-02-07T19:03:14.828Z,22.73
2019-02-07T19:11:56.977Z,25.17
2019-02-07T19:14:25.270Z,25.33
2019-02-07T19:17:33.903Z,25.93
2019-02-07T19:23:23.628Z,25.50
2019-02-07T19:25:51.635Z,24.60
2019-02-07T19:31:01.515Z,25.83
2019-02-07T19:33:29.504Z,24.67
2019-02-07T19:38:58.088Z,26.67
2019-02-07T19:50:54.285Z,25.23
2019-02-07T19:53:22.684Z,22.07
2019-02-07T20:02:32.088Z,8.30
2019-02-07T20:05:12.103Z,10.70
2019-02-07T20:10:53.298Z,7.73
2019-02-07T20:13:21.263Z,7.90
2019-02-07T20:19:32.171Z,7.60
2019-02-07T20:21:59.733Z,10.20
2019-02-07T20:24:45.795Z,8.70
2019-02-07T20:30:28.233Z,7.53
2019-02-07T20:36:18.229Z,6.27
2019-02-07T20:39:27.164Z,4.97
2019-02-07T20:54:48.263Z,4.83
2019-02-07T20:57:56.633Z,3.80
2019-02-07T21:03:50.112Z,3.57
2019-02-07T21:18:29.116Z,4.80
2019-02-07T21:21:09.303Z,2.60
2019-02-07T21:23:49.462Z,2.80
2019-02-07T21:26:58.063Z,3.23
2019-02-07T21:29:26.024Z,2.70
2019-02-07T21:31:54.006Z,2.83
2019-02-07T21:34:22.415Z,3.58
2019-02-07T21:36:50.464Z,2.73
2019-02-07T21:42:20.312Z,2.50
2019-02-07T21:45:28.580Z,2.83
2019-02-07T21:51:09.730Z,2.70
2019-02-07T21:56:58.134Z,2.30
2019-02-07T21:59:38.671Z,2.30
2019-02-07T22:02:46.960Z,1.80
2019-02-07T22:11:37.188Z,1.87
2019-02-07T22:14:45.805Z,2.20
2019-02-07T22:17:14.062Z,1.97
2019-02-07T22:19:42.574Z,1.80
2019-02-07T22:22:49.000Z,2.57
2019-02-07T22:27:51.930Z,2.00
2019-02-07T22:30:39.130Z,1.80
2019-02-07T22:36:20.622Z,2.40
2019-02-07T22:42:09.479Z,1.90
2019-02-07T22:47:58.119Z,1.73
2019-02-07T22:53:46.805Z,1.50
2019-02-07T22:56:15.100Z,2.47
2019-02-07T22:58:42.328Z,1.70
2019-02-07T23:01:48.944Z,1.70
2019-02-07T23:04:18.174Z,1.50
2019-02-07T23:07:26.799Z,1.70
2019-02-07T23:10:14.111Z,1.60
2019-02-07T23:12:42.381Z,2.20
2019-02-07T23:15:22.910Z,2.53
2019-02-07T23:17:50.807Z,2.30
2019-02-07T23:23:59.210Z,2.33
2019-02-07T23:26:27.835Z,3.33
2019-02-07T23:28:56.172Z,2.27
2019-02-07T23:34:26.633Z,2.20
2019-02-07T23:36:54.587Z,2.30
2019-02-07T23:39:23.294Z,2.17
2019-02-07T23:48:02.439Z,4.60
2019-02-07T23:50:31.021Z,4.50
2019-02-07T23:52:59.608Z,5.33
2019-02-07T23:58:28.117Z,10.43
